sensor_id;sensor_type;location;lat;lon;timestamp;P1;durP1;ratioP1;P2;durP2;ratioP2
72123;SDS011;63818;37.134;-8.548;2023-03-31T00:03:21;21.9;;;6.0;;
72123;SDS011;63818;37.134;-8.548;2023-03-31T00:08:11;17.6;;;5.9;;
72123;SDS011;63818;37.134;-8.548;2023-03-31T00:12:59;18.1;;;5.9;;
72123;SDS011;63818;37.134;-8.548;2023-03-31T00:17:46;21.4;;;6.2;;
72123;SDS011;63818;37.134;-8.548;2023-03-31T00:22:35;19.4;;;6.3;;
72123;SDS011;63818;37.134;-8.548;2023-03-31T00:27:22;17.1;;;6.2;;
72123;SDS011;63818;37.134;-8.548;2023-03-31T00:32:09;23.5;;;6.3;;
72123;SDS011;63818;37.134;-8.548;2023-03-31T00:36:56;24.0;;;6.1;;
72123;SDS011;63818;37.134;-8.548;2023-03-31T00:41:44;18.7;;;5.9;;
72123;SDS011;63818;37.134;-8.548;2023-03-31T00:46:31;15.4;;;5.7;;
72123;SDS011;63818;37.134;-8.548;2023-03-31T00:51:19;12.9;;;5.5;;
72123;SDS011;63818;37.134;-8.548;2023-03-31T00:56:08;14.4;;;5.6;;
72123;SDS011;63818;37.134;-8.548;2023-03-31T01:00:58;16.2;;;6.1;;
72123;SDS011;63818;37.134;-8.548;2023-03-31T01:05:47;16.3;;;6.3;;
72123;SDS011;63818;37.134;-8.548;2023-03-31T01:10:37;15.3;;;6.1;;
72123;SDS011;63818;37.134;-8.548;2023-03-31T01:15:29;17.8;;;5.9;;
72123;SDS011;63818;37.134;-8.548;2023-03-31T01:20:16;21.0;;;5.9;;
72123;SDS011;63818;37.134;-8.548;2023-03-31T01:25:13;17.6;;;5.9;;
72123;SDS011;63818;37.134;-8.548;2023-03-31T01:43:54;18.3;;;5.9;;
72123;SDS011;63818;37.134;-8.548;2023-03-31T01:48:46;19.3;;;6.1;;
72123;SDS011;63818;37.134;-8.548;2023-03-31T01:53:42;18.7;;;6.4;;
72123;SDS011;63818;37.134;-8.548;2023-03-31T01:58:33;16.7;;;6.2;;
72123;SDS011;63818;37.134;-8.548;2023-03-31T02:03:24;19.2;;;5.7;;
72123;SDS011;63818;37.134;-8.548;2023-03-31T02:08:14;21.5;;;6.0;;
72123;SDS011;63818;37.134;-8.548;2023-03-31T02:13:05;19.1;;;6.1;;
72123;SDS011;63818;37.134;-8.548;2023-03-31T02:17:54;16.3;;;7.0;;
72123;SDS011;63818;37.134;-8.548;2023-03-31T02:22:44;27.7;;;7.2;;
72123;SDS011;63818;37.134;-8.548;2023-03-31T02:27:34;22.4;;;6.2;;
72123;SDS011;63818;37.134;-8.548;2023-03-31T02:32:24;17.1;;;6.0;;
72123;SDS011;63818;37.134;-8.548;2023-03-31T02:37:14;15.8;;;6.0;;
72123;SDS011;63818;37.134;-8.548;2023-03-31T02:42:04;15.8;;;6.1;;
72123;SDS011;63818;37.134;-8.548;2023-03-31T02:46:53;14.4;;;6.2;;
72123;SDS011;63818;37.134;-8.548;2023-03-31T02:51:56;17.2;;;6.5;;
72123;SDS011;63818;37.134;-8.548;2023-03-31T02:57:12;16.4;;;6.5;;
72123;SDS011;63818;37.134;-8.548;2023-03-31T03:02:14;16.1;;;6.3;;
72123;SDS011;63818;37.134;-8.548;2023-03-31T03:07:04;18.0;;;6.2;;
72123;SDS011;63818;37.134;-8.548;2023-03-31T03:11:59;17.9;;;6.6;;
72123;SDS011;63818;37.134;-8.548;2023-03-31T03:16:57;18.7;;;7.2;;
72123;SDS011;63818;37.134;-8.548;2023-03-31T03:21:54;17.9;;;6.6;;
72123;SDS011;63818;37.134;-8.548;2023-03-31T03:26:41;15.7;;;6.2;;
72123;SDS011;63818;37.134;-8.548;2023-03-31T03:31:27;20.4;;;6.7;;
72123;SDS011;63818;37.134;-8.548;2023-03-31T03:36:13;23.8;;;6.9;;
72123;SDS011;63818;37.134;-8.548;2023-03-31T03:41:01;20.9;;;6.6;;
72123;SDS011;63818;37.134;-8.548;2023-03-31T03:45:50;15.5;;;6.6;;
72123;SDS011;63818;37.134;-8.548;2023-03-31T03:50:41;15.9;;;6.7;;
72123;SDS011;63818;37.134;-8.548;2023-03-31T03:55:33;20.2;;;7.1;;
72123;SDS011;63818;37.134;-8.548;2023-03-31T04:00:26;18.1;;;7.1;;
72123;SDS011;63818;37.134;-8.548;2023-03-31T04:05:15;17.6;;;7.2;;
72123;SDS011;63818;37.134;-8.548;2023-03-31T04:10:01;23.8;;;7.5;;
72123;SDS011;63818;37.134;-8.548;2023-03-31T04:14:47;24.6;;;7.0;;
72123;SDS011;63818;37.134;-8.548;2023-03-31T04:19:33;21.0;;;6.9;;
72123;SDS011;63818;37.134;-8.548;2023-03-31T04:24:22;18.7;;;7.2;;
72123;SDS011;63818;37.134;-8.548;2023-03-31T04:29:14;19.2;;;7.0;;
72123;SDS011;63818;37.134;-8.548;2023-03-31T04:34:01;18.3;;;6.6;;
72123;SDS011;63818;37.134;-8.548;2023-03-31T04:38:48;14.1;;;6.5;;
72123;SDS011;63818;37.134;-8.548;2023-03-31T04:43:38;22.2;;;6.5;;
72123;SDS011;63818;37.134;-8.548;2023-03-31T04:48:27;19.4;;;6.2;;
72123;SDS011;63818;37.134;-8.548;2023-03-31T04:53:13;21.5;;;6.8;;
72123;SDS011;63818;37.134;-8.548;2023-03-31T04:58:01;21.3;;;7.1;;
72123;SDS011;63818;37.134;-8.548;2023-03-31T05:02:51;21.8;;;7.1;;
72123;SDS011;63818;37.134;-8.548;2023-03-31T05:07:37;20.3;;;7.2;;
72123;SDS011;63818;37.134;-8.548;2023-03-31T05:12:25;15.3;;;6.6;;
72123;SDS011;63818;37.134;-8.548;2023-03-31T05:17:15;14.2;;;6.7;;
72123;SDS011;63818;37.134;-8.548;2023-03-31T05:22:01;19.3;;;7.0;;
72123;SDS011;63818;37.134;-8.548;2023-03-31T05:26:50;10.0;;;6.6;;
72123;SDS011;63818;37.134;-8.548;2023-03-31T05:31:36;14.3;;;6.4;;
72123;SDS011;63818;37.134;-8.548;2023-03-31T05:36:27;17.6;;;6.6;;
72123;SDS011;63818;37.134;-8.548;2023-03-31T05:41:15;14.9;;;6.6;;
72123;SDS011;63818;37.134;-8.548;2023-03-31T05:46:03;14.3;;;6.8;;
72123;SDS011;63818;37.134;-8.548;2023-03-31T05:50:49;16.7;;;6.8;;
72123;SDS011;63818;37.134;-8.548;2023-03-31T05:55:43;18.4;;;6.8;;
72123;SDS011;63818;37.134;-8.548;2023-03-31T06:00:35;17.6;;;6.9;;
72123;SDS011;63818;37.134;-8.548;2023-03-31T06:05:21;17.6;;;7.0;;
72123;SDS011;63818;37.134;-8.548;2023-03-31T06:10:09;18.7;;;7.4;;
72123;SDS011;63818;37.134;-8.548;2023-03-31T06:14:55;18.1;;;7.6;;
72123;SDS011;63818;37.134;-8.548;2023-03-31T06:19:41;17.8;;;7.5;;
72123;SDS011;63818;37.134;-8.548;2023-03-31T06:24:27;16.1;;;7.3;;
72123;SDS011;63818;37.134;-8.548;2023-03-31T06:29:17;14.3;;;6.9;;
72123;SDS011;63818;37.134;-8.548;2023-03-31T06:34:04;15.9;;;7.0;;
72123;SDS011;63818;37.134;-8.548;2023-03-31T06:38:52;16.6;;;7.3;;
72123;SDS011;63818;37.134;-8.548;2023-03-31T06:43:38;17.8;;;7.5;;
72123;SDS011;63818;37.134;-8.548;2023-03-31T06:48:27;19.6;;;7.6;;
72123;SDS011;63818;37.134;-8.548;2023-03-31T06:53:16;22.7;;;8.3;;
72123;SDS011;63818;37.134;-8.548;2023-03-31T06:58:05;23.4;;;8.5;;
72123;SDS011;63818;37.134;-8.548;2023-03-31T07:02:53;20.7;;;7.5;;
72123;SDS011;63818;37.134;-8.548;2023-03-31T07:07:39;22.2;;;7.7;;
72123;SDS011;63818;37.134;-8.548;2023-03-31T07:12:37;25.6;;;8.8;;
72123;SDS011;63818;37.134;-8.548;2023-03-31T07:17:23;25.7;;;8.7;;
72123;SDS011;63818;37.134;-8.548;2023-03-31T07:22:09;20.2;;;7.8;;
72123;SDS011;63818;37.134;-8.548;2023-03-31T07:26:58;17.9;;;7.8;;
72123;SDS011;63818;37.134;-8.548;2023-03-31T07:31:45;22.1;;;7.9;;
72123;SDS011;63818;37.134;-8.548;2023-03-31T07:36:31;21.2;;;8.4;;
72123;SDS011;63818;37.134;-8.548;2023-03-31T07:41:18;18.4;;;8.7;;
72123;SDS011;63818;37.134;-8.548;2023-03-31T07:46:05;19.6;;;8.2;;
72123;SDS011;63818;37.134;-8.548;2023-03-31T07:50:57;22.7;;;8.3;;
72123;SDS011;63818;37.134;-8.548;2023-03-31T07:55:43;23.9;;;8.6;;
72123;SDS011;63818;37.134;-8.548;2023-03-31T08:00:29;28.7;;;8.7;;
72123;SDS011;63818;37.134;-8.548;2023-03-31T08:05:19;17.5;;;8.6;;
72123;SDS011;63818;37.134;-8.548;2023-03-31T08:10:06;20.8;;;8.4;;
72123;SDS011;63818;37.134;-8.548;2023-03-31T08:14:56;21.6;;;8.5;;
72123;SDS011;63818;37.134;-8.548;2023-03-31T08:19:42;19.2;;;8.1;;
72123;SDS011;63818;37.134;-8.548;2023-03-31T08:24:28;31.8;;;9.2;;
72123;SDS011;63818;37.134;-8.548;2023-03-31T08:29:14;27.1;;;9.3;;
72123;SDS011;63818;37.134;-8.548;2023-03-31T08:34:03;31.1;;;9.2;;
72123;SDS011;63818;37.134;-8.548;2023-03-31T08:38:51;28.9;;;9.4;;
72123;SDS011;63818;37.134;-8.548;2023-03-31T08:43:38;26.8;;;8.1;;
72123;SDS011;63818;37.134;-8.548;2023-03-31T08:48:33;30.9;;;8.2;;
72123;SDS011;63818;37.134;-8.548;2023-03-31T08:53:24;28.5;;;8.9;;
72123;SDS011;63818;37.134;-8.548;2023-03-31T08:58:16;24.8;;;8.0;;
72123;SDS011;63818;37.134;-8.548;2023-03-31T09:03:25;26.6;;;7.3;;
72123;SDS011;63818;37.134;-8.548;2023-03-31T09:08:18;28.0;;;7.3;;
72123;SDS011;63818;37.134;-8.548;2023-03-31T09:13:18;23.6;;;6.9;;
72123;SDS011;63818;37.134;-8.548;2023-03-31T09:18:12;21.8;;;7.6;;
72123;SDS011;63818;37.134;-8.548;2023-03-31T09:23:16;21.8;;;7.5;;
72123;SDS011;63818;37.134;-8.548;2023-03-31T09:28:12;24.6;;;6.5;;
72123;SDS011;63818;37.134;-8.548;2023-03-31T09:33:09;22.8;;;6.2;;
72123;SDS011;63818;37.134;-8.548;2023-03-31T09:37:59;20.8;;;6.2;;
72123;SDS011;63818;37.134;-8.548;2023-03-31T09:42:45;21.1;;;6.3;;
72123;SDS011;63818;37.134;-8.548;2023-03-31T09:47:35;16.6;;;6.1;;
72123;SDS011;63818;37.134;-8.548;2023-03-31T09:52:27;17.1;;;6.5;;
72123;SDS011;63818;37.134;-8.548;2023-03-31T09:57:25;21.5;;;6.6;;
72123;SDS011;63818;37.134;-8.548;2023-03-31T10:03:00;20.8;;;6.3;;
72123;SDS011;63818;37.134;-8.548;2023-03-31T10:07:48;20.4;;;7.3;;
72123;SDS011;63818;37.134;-8.548;2023-03-31T10:12:34;23.5;;;7.8;;
72123;SDS011;63818;37.134;-8.548;2023-03-31T10:17:24;12.4;;;6.7;;
72123;SDS011;63818;37.134;-8.548;2023-03-31T10:22:15;18.0;;;6.9;;
72123;SDS011;63818;37.134;-8.548;2023-03-31T10:27:17;22.6;;;7.3;;
72123;SDS011;63818;37.134;-8.548;2023-03-31T10:32:12;19.1;;;6.8;;
72123;SDS011;63818;37.134;-8.548;2023-03-31T10:37:08;18.2;;;6.4;;
72123;SDS011;63818;37.134;-8.548;2023-03-31T10:42:01;21.5;;;6.6;;
72123;SDS011;63818;37.134;-8.548;2023-03-31T10:46:52;20.3;;;6.8;;
72123;SDS011;63818;37.134;-8.548;2023-03-31T10:51:44;20.1;;;7.6;;
72123;SDS011;63818;37.134;-8.548;2023-03-31T10:56:40;23.9;;;9.0;;
72123;SDS011;63818;37.134;-8.548;2023-03-31T11:01:34;20.3;;;8.3;;
72123;SDS011;63818;37.134;-8.548;2023-03-31T11:06:37;16.5;;;6.9;;
72123;SDS011;63818;37.134;-8.548;2023-03-31T11:11:29;18.5;;;6.6;;
72123;SDS011;63818;37.134;-8.548;2023-03-31T11:16:24;17.2;;;6.4;;
72123;SDS011;63818;37.134;-8.548;2023-03-31T11:21:19;15.8;;;5.9;;
72123;SDS011;63818;37.134;-8.548;2023-03-31T11:26:13;15.1;;;6.0;;
72123;SDS011;63818;37.134;-8.548;2023-03-31T11:31:20;14.1;;;5.9;;
72123;SDS011;63818;37.134;-8.548;2023-03-31T11:36:15;14.2;;;6.2;;
72123;SDS011;63818;37.134;-8.548;2023-03-31T11:41:16;14.1;;;6.4;;
72123;SDS011;63818;37.134;-8.548;2023-03-31T11:46:08;16.1;;;6.0;;
72123;SDS011;63818;37.134;-8.548;2023-03-31T11:50:58;19.5;;;6.1;;
72123;SDS011;63818;37.134;-8.548;2023-03-31T11:55:52;20.7;;;6.2;;
72123;SDS011;63818;37.134;-8.548;2023-03-31T12:00:42;19.4;;;6.3;;
72123;SDS011;63818;37.134;-8.548;2023-03-31T12:05:36;17.6;;;5.9;;
72123;SDS011;63818;37.134;-8.548;2023-03-31T12:10:31;21.0;;;5.4;;
72123;SDS011;63818;37.134;-8.548;2023-03-31T12:15:22;20.4;;;5.5;;
72123;SDS011;63818;37.134;-8.548;2023-03-31T12:20:13;17.9;;;5.8;;
72123;SDS011;63818;37.134;-8.548;2023-03-31T12:25:10;17.8;;;5.9;;
72123;SDS011;63818;37.134;-8.548;2023-03-31T12:30:00;13.7;;;5.6;;
72123;SDS011;63818;37.134;-8.548;2023-03-31T12:35:00;11.5;;;5.6;;
72123;SDS011;63818;37.134;-8.548;2023-03-31T12:39:52;10.9;;;6.3;;
72123;SDS011;63818;37.134;-8.548;2023-03-31T12:44:50;29.1;;;6.7;;
72123;SDS011;63818;37.134;-8.548;2023-03-31T12:49:49;28.5;;;6.2;;
72123;SDS011;63818;37.134;-8.548;2023-03-31T12:56:32;20.4;;;5.9;;
72123;SDS011;63818;37.134;-8.548;2023-03-31T13:02:24;17.0;;;6.1;;
72123;SDS011;63818;37.134;-8.548;2023-03-31T13:07:39;15.0;;;6.0;;
72123;SDS011;63818;37.134;-8.548;2023-03-31T13:12:47;11.2;;;5.8;;
72123;SDS011;63818;37.134;-8.548;2023-03-31T13:17:46;15.5;;;5.9;;
72123;SDS011;63818;37.134;-8.548;2023-03-31T13:22:44;20.0;;;5.9;;
72123;SDS011;63818;37.134;-8.548;2023-03-31T13:27:31;18.1;;;5.8;;
72123;SDS011;63818;37.134;-8.548;2023-03-31T13:32:21;16.3;;;5.6;;
72123;SDS011;63818;37.134;-8.548;2023-03-31T13:37:11;16.5;;;5.6;;
72123;SDS011;63818;37.134;-8.548;2023-03-31T13:42:03;15.2;;;5.6;;
72123;SDS011;63818;37.134;-8.548;2023-03-31T13:47:03;12.7;;;5.3;;
72123;SDS011;63818;37.134;-8.548;2023-03-31T13:51:58;11.5;;;5.6;;
72123;SDS011;63818;37.134;-8.548;2023-03-31T13:56:53;13.9;;;5.5;;
72123;SDS011;63818;37.134;-8.548;2023-03-31T14:01:50;13.7;;;4.9;;
72123;SDS011;63818;37.134;-8.548;2023-03-31T14:06:46;12.6;;;5.3;;
72123;SDS011;63818;37.134;-8.548;2023-03-31T14:11:34;16.7;;;6.0;;
72123;SDS011;63818;37.134;-8.548;2023-03-31T14:16:24;15.7;;;5.7;;
72123;SDS011;63818;37.134;-8.548;2023-03-31T14:21:18;13.0;;;5.4;;
72123;SDS011;63818;37.134;-8.548;2023-03-31T14:26:11;12.4;;;5.5;;
72123;SDS011;63818;37.134;-8.548;2023-03-31T14:31:10;13.2;;;5.4;;
72123;SDS011;63818;37.134;-8.548;2023-03-31T14:36:00;15.2;;;5.4;;
72123;SDS011;63818;37.134;-8.548;2023-03-31T14:40:53;13.8;;;5.5;;
72123;SDS011;63818;37.134;-8.548;2023-03-31T14:45:42;14.0;;;6.1;;
72123;SDS011;63818;37.134;-8.548;2023-03-31T14:50:32;14.3;;;5.7;;
72123;SDS011;63818;37.134;-8.548;2023-03-31T14:55:21;13.0;;;5.1;;
72123;SDS011;63818;37.134;-8.548;2023-03-31T15:00:13;13.4;;;5.4;;
72123;SDS011;63818;37.134;-8.548;2023-03-31T15:05:02;15.9;;;5.8;;
72123;SDS011;63818;37.134;-8.548;2023-03-31T15:09:49;17.9;;;6.0;;
72123;SDS011;63818;37.134;-8.548;2023-03-31T15:14:37;14.8;;;5.7;;
72123;SDS011;63818;37.134;-8.548;2023-03-31T15:19:32;14.4;;;5.5;;
72123;SDS011;63818;37.134;-8.548;2023-03-31T15:24:19;15.3;;;5.4;;
72123;SDS011;63818;37.134;-8.548;2023-03-31T15:29:13;14.5;;;5.4;;
72123;SDS011;63818;37.134;-8.548;2023-03-31T15:34:16;13.5;;;5.5;;
72123;SDS011;63818;37.134;-8.548;2023-03-31T15:39:16;12.8;;;5.6;;
72123;SDS011;63818;37.134;-8.548;2023-03-31T15:44:05;14.5;;;5.7;;
72123;SDS011;63818;37.134;-8.548;2023-03-31T15:48:57;15.1;;;5.7;;
72123;SDS011;63818;37.134;-8.548;2023-03-31T15:53:45;13.8;;;5.7;;
72123;SDS011;63818;37.134;-8.548;2023-03-31T15:58:51;16.1;;;6.0;;
72123;SDS011;63818;37.134;-8.548;2023-03-31T16:03:42;14.0;;;5.7;;
72123;SDS011;63818;37.134;-8.548;2023-03-31T16:08:35;11.6;;;5.3;;
72123;SDS011;63818;37.134;-8.548;2023-03-31T16:13:25;13.3;;;5.4;;
72123;SDS011;63818;37.134;-8.548;2023-03-31T16:18:13;13.4;;;5.4;;
72123;SDS011;63818;37.134;-8.548;2023-03-31T16:23:02;15.1;;;5.8;;
72123;SDS011;63818;37.134;-8.548;2023-03-31T16:28:03;16.3;;;5.7;;
72123;SDS011;63818;37.134;-8.548;2023-03-31T16:33:06;14.2;;;5.4;;
72123;SDS011;63818;37.134;-8.548;2023-03-31T16:37:54;14.2;;;5.7;;
72123;SDS011;63818;37.134;-8.548;2023-03-31T16:42:40;15.3;;;6.3;;
72123;SDS011;63818;37.134;-8.548;2023-03-31T16:47:26;14.7;;;6.1;;
72123;SDS011;63818;37.134;-8.548;2023-03-31T16:52:12;14.5;;;5.5;;
72123;SDS011;63818;37.134;-8.548;2023-03-31T16:56:59;12.2;;;5.2;;
72123;SDS011;63818;37.134;-8.548;2023-03-31T17:01:44;13.2;;;5.3;;
72123;SDS011;63818;37.134;-8.548;2023-03-31T17:06:30;14.8;;;5.4;;
72123;SDS011;63818;37.134;-8.548;2023-03-31T17:11:21;14.8;;;5.7;;
72123;SDS011;63818;37.134;-8.548;2023-03-31T17:16:07;15.7;;;6.0;;
72123;SDS011;63818;37.134;-8.548;2023-03-31T17:21:06;19.0;;;6.1;;
72123;SDS011;63818;37.134;-8.548;2023-03-31T17:25:52;16.4;;;5.6;;
72123;SDS011;63818;37.134;-8.548;2023-03-31T17:30:41;12.5;;;5.5;;
72123;SDS011;63818;37.134;-8.548;2023-03-31T17:35:33;13.9;;;6.2;;
72123;SDS011;63818;37.134;-8.548;2023-03-31T17:40:19;12.6;;;6.0;;
72123;SDS011;63818;37.134;-8.548;2023-03-31T17:45:06;12.1;;;5.6;;
72123;SDS011;63818;37.134;-8.548;2023-03-31T17:49:52;12.2;;;5.5;;
72123;SDS011;63818;37.134;-8.548;2023-03-31T17:54:39;13.4;;;5.5;;
72123;SDS011;63818;37.134;-8.548;2023-03-31T17:59:25;14.4;;;6.2;;
72123;SDS011;63818;37.134;-8.548;2023-03-31T18:04:11;15.2;;;6.3;;
72123;SDS011;63818;37.134;-8.548;2023-03-31T18:08:58;14.9;;;5.7;;
72123;SDS011;63818;37.134;-8.548;2023-03-31T18:13:44;14.1;;;5.5;;
72123;SDS011;63818;37.134;-8.548;2023-03-31T18:18:29;15.4;;;6.2;;
72123;SDS011;63818;37.134;-8.548;2023-03-31T18:23:16;15.9;;;6.5;;
72123;SDS011;63818;37.134;-8.548;2023-03-31T18:28:02;17.8;;;6.2;;
72123;SDS011;63818;37.134;-8.548;2023-03-31T18:32:51;19.2;;;6.5;;
72123;SDS011;63818;37.134;-8.548;2023-03-31T18:37:38;15.9;;;6.0;;
72123;SDS011;63818;37.134;-8.548;2023-03-31T18:42:27;16.0;;;5.8;;
72123;SDS011;63818;37.134;-8.548;2023-03-31T18:47:24;17.1;;;5.8;;
72123;SDS011;63818;37.134;-8.548;2023-03-31T18:52:10;16.3;;;5.8;;
72123;SDS011;63818;37.134;-8.548;2023-03-31T18:56:58;18.7;;;5.8;;
72123;SDS011;63818;37.134;-8.548;2023-03-31T19:01:44;21.3;;;6.2;;
72123;SDS011;63818;37.134;-8.548;2023-03-31T19:06:30;21.0;;;6.3;;
72123;SDS011;63818;37.134;-8.548;2023-03-31T19:11:16;19.2;;;6.8;;
72123;SDS011;63818;37.134;-8.548;2023-03-31T19:16:03;18.8;;;6.5;;
72123;SDS011;63818;37.134;-8.548;2023-03-31T19:20:49;16.4;;;5.9;;
72123;SDS011;63818;37.134;-8.548;2023-03-31T19:25:35;20.3;;;6.1;;
72123;SDS011;63818;37.134;-8.548;2023-03-31T19:30:22;23.6;;;6.0;;
72123;SDS011;63818;37.134;-8.548;2023-03-31T19:35:08;19.6;;;6.3;;
72123;SDS011;63818;37.134;-8.548;2023-03-31T19:39:56;20.8;;;6.6;;
72123;SDS011;63818;37.134;-8.548;2023-03-31T19:44:43;21.0;;;6.2;;
72123;SDS011;63818;37.134;-8.548;2023-03-31T19:49:29;19.4;;;6.1;;
72123;SDS011;63818;37.134;-8.548;2023-03-31T19:54:16;22.3;;;6.8;;
72123;SDS011;63818;37.134;-8.548;2023-03-31T19:59:04;22.1;;;6.6;;
72123;SDS011;63818;37.134;-8.548;2023-03-31T20:03:51;19.4;;;6.2;;
72123;SDS011;63818;37.134;-8.548;2023-03-31T20:08:38;17.9;;;6.8;;
72123;SDS011;63818;37.134;-8.548;2023-03-31T20:13:25;20.1;;;7.1;;
72123;SDS011;63818;37.134;-8.548;2023-03-31T20:18:11;20.9;;;7.3;;
72123;SDS011;63818;37.134;-8.548;2023-03-31T20:22:57;20.0;;;7.2;;
72123;SDS011;63818;37.134;-8.548;2023-03-31T20:27:43;19.3;;;6.8;;
72123;SDS011;63818;37.134;-8.548;2023-03-31T20:32:32;19.1;;;7.6;;
72123;SDS011;63818;37.134;-8.548;2023-03-31T20:37:19;20.4;;;7.9;;
72123;SDS011;63818;37.134;-8.548;2023-03-31T20:42:05;20.3;;;7.9;;
72123;SDS011;63818;37.134;-8.548;2023-03-31T20:46:51;19.4;;;7.3;;
72123;SDS011;63818;37.134;-8.548;2023-03-31T20:51:37;15.8;;;6.0;;
72123;SDS011;63818;37.134;-8.548;2023-03-31T20:56:26;18.7;;;6.3;;
72123;SDS011;63818;37.134;-8.548;2023-03-31T21:01:14;24.5;;;6.8;;
72123;SDS011;63818;37.134;-8.548;2023-03-31T21:06:02;21.7;;;7.3;;
72123;SDS011;63818;37.134;-8.548;2023-03-31T21:10:50;15.6;;;7.1;;
72123;SDS011;63818;37.134;-8.548;2023-03-31T21:15:37;14.6;;;6.5;;
72123;SDS011;63818;37.134;-8.548;2023-03-31T21:20:23;19.5;;;7.1;;
72123;SDS011;63818;37.134;-8.548;2023-03-31T21:25:09;22.0;;;6.8;;
72123;SDS011;63818;37.134;-8.548;2023-03-31T21:30:06;22.1;;;5.9;;
72123;SDS011;63818;37.134;-8.548;2023-03-31T21:34:53;20.8;;;6.0;;
72123;SDS011;63818;37.134;-8.548;2023-03-31T21:39:47;20.7;;;6.4;;
72123;SDS011;63818;37.134;-8.548;2023-03-31T21:44:56;17.7;;;6.0;;
72123;SDS011;63818;37.134;-8.548;2023-03-31T21:49:44;13.9;;;5.9;;
72123;SDS011;63818;37.134;-8.548;2023-03-31T21:54:29;15.2;;;5.9;;
72123;SDS011;63818;37.134;-8.548;2023-03-31T21:59:16;16.4;;;5.6;;
72123;SDS011;63818;37.134;-8.548;2023-03-31T22:04:16;15.5;;;5.6;;
72123;SDS011;63818;37.134;-8.548;2023-03-31T22:09:04;15.4;;;5.5;;
72123;SDS011;63818;37.134;-8.548;2023-03-31T22:13:50;18.8;;;6.2;;
72123;SDS011;63818;37.134;-8.548;2023-03-31T22:18:38;18.9;;;6.3;;
72123;SDS011;63818;37.134;-8.548;2023-03-31T22:23:24;18.6;;;6.0;;
72123;SDS011;63818;37.134;-8.548;2023-03-31T22:28:13;18.4;;;6.0;;
72123;SDS011;63818;37.134;-8.548;2023-03-31T22:32:59;19.7;;;6.4;;
72123;SDS011;63818;37.134;-8.548;2023-03-31T22:37:45;20.5;;;6.8;;
72123;SDS011;63818;37.134;-8.548;2023-03-31T22:42:32;20.3;;;6.3;;
72123;SDS011;63818;37.134;-8.548;2023-03-31T22:47:18;20.4;;;6.0;;
72123;SDS011;63818;37.134;-8.548;2023-03-31T22:52:09;17.4;;;5.9;;
72123;SDS011;63818;37.134;-8.548;2023-03-31T22:56:55;17.3;;;6.2;;
72123;SDS011;63818;37.134;-8.548;2023-03-31T23:01:42;19.5;;;6.6;;
72123;SDS011;63818;37.134;-8.548;2023-03-31T23:06:28;19.2;;;6.8;;
72123;SDS011;63818;37.134;-8.548;2023-03-31T23:11:17;17.8;;;6.2;;
72123;SDS011;63818;37.134;-8.548;2023-03-31T23:16:04;19.2;;;6.0;;
72123;SDS011;63818;37.134;-8.548;2023-03-31T23:20:54;21.4;;;6.5;;
72123;SDS011;63818;37.134;-8.548;2023-03-31T23:25:48;20.6;;;7.0;;
72123;SDS011;63818;37.134;-8.548;2023-03-31T23:30:41;21.1;;;6.6;;
72123;SDS011;63818;37.134;-8.548;2023-03-31T23:35:27;24.0;;;7.0;;
72123;SDS011;63818;37.134;-8.548;2023-03-31T23:40:14;21.5;;;7.2;;
72123;SDS011;63818;37.134;-8.548;2023-03-31T23:45:03;20.9;;;6.5;;
72123;SDS011;63818;37.134;-8.548;2023-03-31T23:49:58;22.3;;;6.9;;
72123;SDS011;63818;37.134;-8.548;2023-03-31T23:54:44;21.0;;;7.0;;
72123;SDS011;63818;37.134;-8.548;2023-03-31T23:59:30;19.0;;;6.6;;
